Time;durP1;ratioP1;P1;durP2;ratioP2;P2;SDS_P1;SDS_P2;PMS_P1;PMS_P2;Temp;Humidity;BMP_temperature;BMP_pressure;BME280_temperature;BME280_humidity;BME280_pressure;Samples;Min_cycle;Max_cycle;Signal;HPM_P1;HPM_P2
2023/12/07 00:01:14;;;;;;;313.47;299.20;;;-0.50;99.90;;;;;;5013129;28;20566;-75
2023/12/07 00:03:40;;;;;;;309.47;295.33;;;-0.50;99.90;;;;;;4989403;28;20092;-75
2023/12/07 00:06:06;;;;;;;299.47;285.90;;;-0.50;99.90;;;;;;5014433;28;20116;-75
2023/12/07 00:08:31;;;;;;;305.93;292.10;;;-0.50;99.90;;;;;;5013108;28;20034;-74
2023/12/07 00:10:57;;;;;;;334.57;319.20;;;-0.50;99.90;;;;;;5012967;28;20037;-75
2023/12/07 00:13:23;;;;;;;330.47;315.10;;;-0.40;99.90;;;;;;5012942;28;20076;-75
2023/12/07 00:15:49;;;;;;;331.13;315.57;;;-0.40;99.90;;;;;;5000369;28;20045;-75
2023/12/07 00:18:14;;;;;;;333.63;318.27;;;-0.50;99.90;;;;;;5013566;28;20042;-75
2023/12/07 00:20:40;;;;;;;319.33;304.60;;;-0.50;99.90;;;;;;5012669;28;20509;-74
2023/12/07 00:23:06;;;;;;;297.87;284.00;;;-0.50;99.90;;;;;;4996259;28;20033;-75
2023/12/07 00:25:31;;;;;;;277.43;264.60;;;-0.60;99.90;;;;;;5020384;28;20052;-75
2023/12/07 00:27:57;;;;;;;281.57;268.30;;;-0.60;99.90;;;;;;5012831;28;20050;-74
2023/12/07 00:30:23;;;;;;;281.97;269.00;;;-0.70;99.90;;;;;;5015335;28;20075;-75
2023/12/07 00:32:49;;;;;;;236.13;224.83;;;-0.70;99.90;;;;;;4995374;28;20493;-75
2023/12/07 00:35:16;;;;;;;283.13;269.98;;;-0.70;99.90;;;;;;4996182;28;20041;-75
2023/12/07 00:37:42;;;;;;;247.77;236.63;;;-0.70;99.90;;;;;;4990529;28;20042;-75
2023/12/07 00:40:08;;;;;;;257.33;245.80;;;-0.80;99.90;;;;;;5010306;28;20056;-75
2023/12/07 00:42:34;;;;;;;246.43;235.10;;;-0.80;99.90;;;;;;5015656;28;20073;-75
2023/12/07 00:45:00;;;;;;;244.63;233.30;;;-0.90;99.90;;;;;;4996076;28;20046;-75
2023/12/07 00:47:26;;;;;;;247.90;236.40;;;-1.00;99.90;;;;;;5017130;28;20556;-75
2023/12/07 00:49:52;;;;;;;261.93;249.57;;;-1.00;99.90;;;;;;5020454;28;20130;-74
2023/12/07 00:52:17;;;;;;;240.20;229.07;;;-1.10;99.90;;;;;;5001494;28;20124;-75
2023/12/07 00:54:44;;;;;;;189.40;180.33;;;-1.10;99.90;;;;;;5015649;28;20073;-74
2023/12/07 00:57:10;;;;;;;187.63;178.52;;;-1.20;99.90;;;;;;5018007;28;20324;-75
2023/12/07 00:59:36;;;;;;;180.00;171.63;;;-1.30;99.90;;;;;;5012493;28;20073;-74
2023/12/07 01:02:03;;;;;;;195.07;186.02;;;-1.30;99.90;;;;;;5015363;28;20112;-75
2023/12/07 01:04:29;;;;;;;189.00;180.35;;;-1.30;99.90;;;;;;4988646;28;20129;-75
2023/12/07 01:06:55;;;;;;;205.57;196.05;;;-1.40;99.90;;;;;;4995445;28;20041;-75
2023/12/07 01:09:21;;;;;;;201.48;191.80;;;-1.40;99.90;;;;;;4995800;28;20100;-75
2023/12/07 01:11:47;;;;;;;205.95;196.30;;;-1.40;99.90;;;;;;4995526;28;20045;-75
2023/12/07 01:14:14;;;;;;;188.35;179.77;;;-1.50;99.90;;;;;;4988990;28;20042;-75
2023/12/07 01:16:39;;;;;;;209.93;200.23;;;-1.50;99.90;;;;;;5010079;28;20049;-75
2023/12/07 01:19:06;;;;;;;153.23;145.83;;;-1.50;99.90;;;;;;5009691;28;20040;-76
2023/12/07 01:21:32;;;;;;;162.30;154.52;;;-1.50;99.90;;;;;;4997167;28;20044;-76
2023/12/07 01:23:58;;;;;;;128.32;121.85;;;-1.60;99.90;;;;;;4995583;28;20081;-75
2023/12/07 01:26:24;;;;;;;159.80;152.07;;;-1.60;99.90;;;;;;4994378;28;20143;-75
2023/12/07 01:28:50;;;;;;;196.82;187.30;;;-1.60;99.90;;;;;;5010784;28;20046;-75
2023/12/07 01:31:17;;;;;;;176.03;166.97;;;-1.60;99.90;;;;;;4990131;28;20517;-76
2023/12/07 01:33:43;;;;;;;174.88;166.50;;;-1.60;99.90;;;;;;5009022;28;20061;-76
2023/12/07 01:36:09;;;;;;;169.15;160.52;;;-1.50;99.90;;;;;;5002120;28;20123;-75
2023/12/07 01:38:34;;;;;;;182.60;173.83;;;-1.60;99.90;;;;;;5007743;28;20073;-75
2023/12/07 01:41:00;;;;;;;143.30;136.33;;;-1.60;99.90;;;;;;5010807;28;20393;-75
2023/12/07 01:43:26;;;;;;;182.27;173.30;;;-1.60;99.90;;;;;;5014873;28;20052;-76
2023/12/07 01:45:53;;;;;;;171.17;162.70;;;-1.60;99.90;;;;;;5011236;28;20560;-75
2023/12/07 01:48:21;;;;;;;178.55;170.23;;;-1.70;99.90;;;;;;5012007;28;20520;-76
2023/12/07 01:50:47;;;;;;;182.25;173.48;;;-1.70;99.90;;;;;;5022698;28;20516;-75
2023/12/07 01:53:14;;;;;;;191.25;182.20;;;-1.80;99.90;;;;;;5014176;28;20037;-75
2023/12/07 01:55:40;;;;;;;164.48;156.48;;;-1.80;99.90;;;;;;4994822;28;20056;-76
2023/12/07 01:58:06;;;;;;;192.45;183.30;;;-1.90;99.90;;;;;;5010823;28;20042;-76
2023/12/07 02:00:33;;;;;;;193.57;184.67;;;-1.90;99.90;;;;;;5005501;28;20688;-75
2023/12/07 02:03:00;;;;;;;162.57;155.02;;;-2.00;99.90;;;;;;5013232;28;20287;-76
2023/12/07 02:05:26;;;;;;;148.70;141.48;;;-2.00;99.90;;;;;;4988070;28;20569;-75
2023/12/07 02:07:52;;;;;;;133.27;126.50;;;-2.10;99.90;;;;;;5010899;28;20478;-75
2023/12/07 02:10:19;;;;;;;120.30;113.80;;;-2.10;99.90;;;;;;5011310;28;20168;-75
2023/12/07 02:12:46;;;;;;;150.07;142.43;;;-2.20;99.90;;;;;;5010235;28;20044;-75
2023/12/07 02:15:12;;;;;;;151.65;144.10;;;-2.20;99.90;;;;;;5011092;28;20186;-75
2023/12/07 02:17:50;;;;;;;139.90;132.83;;;-2.20;99.90;;;;;;5010728;28;20116;-75
2023/12/07 02:20:27;;;;;;;145.98;138.68;;;-2.30;99.90;;;;;;5018878;28;20042;-75
2023/12/07 02:22:56;;;;;;;134.18;127.40;;;-2.30;99.90;;;;;;5008595;28;20520;-75
2023/12/07 02:25:49;;;;;;;92.35;87.10;;;-2.30;99.90;;;;;;5009565;28;20057;-75
2023/12/07 02:28:14;;;;;;;103.45;97.78;;;-2.30;99.90;;;;;;5005075;28;20042;-75
2023/12/07 02:30:40;;;;;;;101.47;95.80;;;-2.30;99.90;;;;;;5008895;28;20030;-75
2023/12/07 02:33:06;;;;;;;110.43;104.37;;;-2.30;99.90;;;;;;5010558;28;20140;-75
2023/12/07 02:35:32;;;;;;;112.60;106.50;;;-2.40;99.90;;;;;;4994883;28;20527;-75
2023/12/07 02:38:00;;;;;;;126.10;119.13;;;-2.10;99.90;;;;;;5010407;28;20042;-75
2023/12/07 02:40:28;;;;;;;146.30;138.98;;;-1.60;99.90;;;;;;4993584;28;20046;-75
2023/12/07 02:42:55;;;;;;;102.93;97.35;;;-1.50;99.90;;;;;;5015407;28;20116;-75
2023/12/07 02:45:21;;;;;;;117.07;110.88;;;-1.50;99.90;;;;;;5011208;28;20074;-75
2023/12/07 02:47:47;;;;;;;134.05;127.32;;;-1.50;99.90;;;;;;4994541;28;20065;-74
2023/12/07 02:50:13;;;;;;;92.10;86.93;;;-1.50;99.90;;;;;;4993823;28;20034;-74
2023/12/07 02:52:39;;;;;;;134.10;127.25;;;-1.60;99.90;;;;;;5009864;28;20575;-74
2023/12/07 02:55:06;;;;;;;121.28;115.05;;;-1.60;99.90;;;;;;5011770;28;20100;-74
2023/12/07 02:57:34;;;;;;;118.78;112.38;;;-1.70;99.90;;;;;;5015356;28;20074;-74
2023/12/07 03:00:06;;;;;;;116.80;110.80;;;-1.80;99.90;;;;;;5016815;28;20050;-74
2023/12/07 03:02:35;;;;;;;139.18;131.77;;;-1.80;99.90;;;;;;5014107;28;20046;-74
2023/12/07 03:05:01;;;;;;;135.38;128.48;;;-1.90;99.90;;;;;;5013734;28;20046;-74
2023/12/07 03:07:26;;;;;;;123.90;116.90;;;-2.00;99.90;;;;;;4994246;28;20041;-74
2023/12/07 03:09:52;;;;;;;160.37;152.67;;;-2.00;99.90;;;;;;4997405;28;20065;-74
2023/12/07 03:12:18;;;;;;;149.90;141.97;;;-2.00;99.90;;;;;;4989336;28;20465;-74
2023/12/07 03:14:44;;;;;;;123.10;116.50;;;-2.10;99.90;;;;;;5017673;28;20129;-74
2023/12/07 03:17:09;;;;;;;133.90;126.93;;;-2.20;99.90;;;;;;5013917;28;20038;-74
2023/12/07 03:19:39;;;;;;;136.27;129.47;;;-2.20;99.90;;;;;;4997486;28;20049;-74
2023/12/07 03:22:06;;;;;;;125.68;119.10;;;-2.30;99.90;;;;;;5012002;28;20038;-74
2023/12/07 03:24:32;;;;;;;133.20;126.20;;;-2.30;99.90;;;;;;5012157;28;20046;-74
2023/12/07 03:26:58;;;;;;;154.27;146.18;;;-2.40;99.90;;;;;;5013089;28;20045;-74
2023/12/07 03:29:24;;;;;;;139.90;132.93;;;-2.30;99.90;;;;;;5013976;28;20054;-74
2023/12/07 03:31:49;;;;;;;146.63;139.13;;;-2.30;99.90;;;;;;5001631;28;20037;-74
2023/12/07 03:34:15;;;;;;;158.63;150.33;;;-2.30;99.90;;;;;;5015149;28;20042;-74
2023/12/07 03:36:45;;;;;;;153.83;146.40;;;-2.30;99.90;;;;;;5000005;28;20156;-74
2023/12/07 03:39:11;;;;;;;146.82;139.35;;;-2.20;99.90;;;;;;4997407;28;20045;-74
2023/12/07 03:41:37;;;;;;;146.80;139.23;;;-2.20;99.90;;;;;;5002342;28;20049;-74
2023/12/07 03:44:02;;;;;;;185.13;176.07;;;-2.10;99.90;;;;;;5013037;28;20041;-75
2023/12/07 03:46:28;;;;;;;176.00;166.90;;;-2.10;99.90;;;;;;5012664;28;20056;-74
2023/12/07 03:48:54;;;;;;;171.30;162.60;;;-2.10;99.90;;;;;;5013519;28;20088;-74
2023/12/07 03:51:19;;;;;;;195.57;185.93;;;-2.00;99.90;;;;;;5013442;28;20469;-74
2023/12/07 03:53:45;;;;;;;136.90;130.03;;;-2.10;99.90;;;;;;5021988;28;20077;-74
2023/12/07 03:56:11;;;;;;;148.13;140.73;;;-2.10;99.90;;;;;;5008624;28;20104;-74
2023/12/07 03:58:36;;;;;;;191.00;181.67;;;-2.00;99.90;;;;;;5012735;28;20487;-74
2023/12/07 04:01:02;;;;;;;176.57;167.67;;;-2.00;99.90;;;;;;5012307;28;20568;-74
2023/12/07 04:03:28;;;;;;;199.20;189.57;;;-2.00;99.90;;;;;;5013699;28;20042;-74
2023/12/07 04:05:54;;;;;;;192.70;183.50;;;-2.00;99.90;;;;;;4999298;28;20132;-74
2023/12/07 04:08:19;;;;;;;166.47;158.47;;;-2.00;99.90;;;;;;5013034;28;20042;-74
2023/12/07 04:10:45;;;;;;;169.77;161.87;;;-2.10;99.90;;;;;;5013370;28;20069;-74
2023/12/07 04:13:11;;;;;;;163.83;156.00;;;-2.00;99.90;;;;;;5013304;28;20038;-73
2023/12/07 04:15:37;;;;;;;159.10;151.17;;;-2.10;99.90;;;;;;4997975;28;20077;-74
2023/12/07 04:18:03;;;;;;;139.17;132.27;;;-2.10;99.90;;;;;;5013505;28;20049;-74
2023/12/07 04:20:28;;;;;;;148.77;141.17;;;-2.20;99.90;;;;;;5013542;28;20041;-74
2023/12/07 04:22:54;;;;;;;156.30;148.70;;;-2.20;99.90;;;;;;4996771;28;20291;-73
2023/12/07 04:25:20;;;;;;;172.23;163.93;;;-2.30;99.90;;;;;;5012216;28;20049;-73
2023/12/07 04:27:45;;;;;;;144.23;136.83;;;-2.30;99.90;;;;;;4996398;28;20046;-74
2023/12/07 04:30:12;;;;;;;158.47;150.83;;;-2.30;99.90;;;;;;5006339;28;20026;-73
2023/12/07 04:32:39;;;;;;;169.48;161.32;;;-2.30;99.90;;;;;;5016595;28;20085;-73
2023/12/07 04:35:06;;;;;;;171.00;162.88;;;-2.30;99.90;;;;;;5012961;28;20037;-73
2023/12/07 04:37:32;;;;;;;145.25;138.25;;;-2.30;99.90;;;;;;5013056;28;20057;-73
2023/12/07 04:39:58;;;;;;;158.20;150.67;;;-2.30;99.90;;;;;;5012933;28;20046;-73
2023/12/07 04:42:24;;;;;;;158.00;150.40;;;-2.30;99.90;;;;;;5020034;28;20524;-73
2023/12/07 04:44:49;;;;;;;164.13;156.30;;;-2.30;99.90;;;;;;4994875;28;20121;-74
2023/12/07 04:47:15;;;;;;;167.13;159.27;;;-2.30;99.90;;;;;;4981494;28;20034;-73
2023/12/07 04:49:41;;;;;;;164.97;156.90;;;-2.30;99.90;;;;;;4988058;28;20038;-74
2023/12/07 04:52:07;;;;;;;147.87;140.40;;;-2.30;99.90;;;;;;5012148;28;20042;-74
2023/12/07 04:54:32;;;;;;;143.07;135.90;;;-2.30;99.90;;;;;;5012853;28;20041;-74
2023/12/07 04:56:58;;;;;;;158.83;146.87;;;-2.30;99.90;;;;;;5013971;28;20065;-73
2023/12/07 04:59:24;;;;;;;161.32;151.05;;;-2.30;99.90;;;;;;5012304;28;20519;-73
2023/12/07 05:01:50;;;;;;;179.33;169.07;;;-2.30;99.90;;;;;;5012134;28;20121;-73
2023/12/07 05:04:16;;;;;;;137.88;130.18;;;-2.30;99.90;;;;;;4990853;28;20121;-73
2023/12/07 05:06:42;;;;;;;123.93;116.03;;;-2.30;99.90;;;;;;5012096;28;20125;-73
2023/12/07 05:09:10;;;;;;;137.10;128.87;;;-2.30;99.90;;;;;;4990845;28;20046;-73
2023/12/07 05:11:37;;;;;;;141.25;133.60;;;-2.30;99.90;;;;;;5013512;28;20068;-74
2023/12/07 05:14:03;;;;;;;169.80;161.23;;;-2.40;99.90;;;;;;5000919;28;20041;-73
2023/12/07 05:16:29;;;;;;;109.10;103.07;;;-2.40;99.90;;;;;;4997335;28;20045;-73
2023/12/07 05:18:55;;;;;;;103.43;97.35;;;-2.40;99.90;;;;;;4993153;28;20399;-73
2023/12/07 05:21:21;;;;;;;135.13;127.93;;;-2.50;99.90;;;;;;5013592;28;20088;-73
2023/12/07 05:23:48;;;;;;;136.10;128.63;;;-2.50;99.90;;;;;;4994763;28;20057;-74
2023/12/07 05:26:14;;;;;;;141.32;134.27;;;-2.50;99.90;;;;;;5010945;28;20064;-73
2023/12/07 05:28:40;;;;;;;133.50;126.45;;;-2.50;99.90;;;;;;4995111;28;20116;-73
2023/12/07 05:31:06;;;;;;;133.00;126.07;;;-2.60;99.90;;;;;;4989899;28;20125;-73
2023/12/07 05:33:33;;;;;;;133.68;126.72;;;-2.60;99.90;;;;;;5015499;28;20046;-73
2023/12/07 05:36:00;;;;;;;126.78;120.03;;;-2.60;99.90;;;;;;4997942;28;20775;-73
2023/12/07 05:38:26;;;;;;;152.25;144.63;;;-2.60;99.90;;;;;;5012411;28;20114;-73
2023/12/07 05:40:51;;;;;;;137.53;130.37;;;-2.50;99.90;;;;;;4990339;28;20097;-73
2023/12/07 05:43:17;;;;;;;114.47;108.03;;;-2.50;99.90;;;;;;5015708;28;20047;-73
2023/12/07 05:45:43;;;;;;;143.37;135.97;;;-2.50;99.90;;;;;;5013177;28;20042;-73
2023/12/07 05:48:09;;;;;;;106.87;101.00;;;-2.50;99.90;;;;;;5015628;28;20104;-73
2023/12/07 05:50:39;;;;;;;143.10;135.82;;;-2.50;99.90;;;;;;4994565;28;20446;-73
2023/12/07 05:53:06;;;;;;;117.32;110.40;;;-2.50;99.90;;;;;;5011193;28;20113;-73
2023/12/07 05:55:32;;;;;;;123.30;116.40;;;-2.40;99.90;;;;;;5038758;28;20046;-73
2023/12/07 05:57:57;;;;;;;135.33;128.03;;;-2.50;99.90;;;;;;5007443;28;20053;-73
2023/12/07 06:00:23;;;;;;;154.90;146.47;;;-2.40;99.90;;;;;;5013157;28;20050;-73
2023/12/07 06:02:49;;;;;;;151.27;143.17;;;-2.50;99.90;;;;;;5015233;28;20045;-73
2023/12/07 06:05:15;;;;;;;133.65;126.07;;;-2.50;99.90;;;;;;5010517;28;20042;-73
2023/12/07 06:07:41;;;;;;;165.77;156.95;;;-2.50;99.90;;;;;;4994452;28;20037;-73
2023/12/07 06:10:07;;;;;;;112.43;105.73;;;-2.40;99.90;;;;;;4993955;28;20059;-73
2023/12/07 06:12:33;;;;;;;118.03;111.07;;;-2.40;99.90;;;;;;5011040;28;20281;-73
2023/12/07 06:14:58;;;;;;;134.45;126.53;;;-2.40;99.90;;;;;;4994577;28;20705;-73
2023/12/07 06:17:24;;;;;;;149.10;140.53;;;-2.40;99.90;;;;;;4992094;28;20048;-73
2023/12/07 06:19:50;;;;;;;128.70;120.97;;;-2.40;99.90;;;;;;4996247;28;20106;-73
2023/12/07 06:22:15;;;;;;;154.83;146.03;;;-2.40;99.90;;;;;;5010899;28;20030;-73
2023/12/07 06:24:41;;;;;;;132.63;124.80;;;-2.40;99.90;;;;;;5010873;28;20184;-73
2023/12/07 06:27:07;;;;;;;130.83;123.27;;;-2.40;99.90;;;;;;5012510;28;20041;-73
2023/12/07 06:29:32;;;;;;;118.33;110.83;;;-2.40;99.90;;;;;;4993328;28;20072;-73
2023/12/07 06:31:59;;;;;;;94.90;88.40;;;-2.40;99.90;;;;;;5010656;28;20120;-73
2023/12/07 06:34:25;;;;;;;156.77;147.52;;;-2.40;99.90;;;;;;5010068;28;20053;-73
2023/12/07 06:36:51;;;;;;;149.47;140.53;;;-2.40;99.90;;;;;;5011210;28;20117;-73
2023/12/07 06:39:16;;;;;;;116.43;108.73;;;-2.50;99.90;;;;;;5010645;28;20478;-73
2023/12/07 06:41:42;;;;;;;156.17;147.00;;;-2.40;99.90;;;;;;5015093;28;20049;-73
2023/12/07 06:44:08;;;;;;;152.57;143.30;;;-2.40;99.90;;;;;;5009431;28;20478;-73
2023/12/07 06:46:34;;;;;;;142.07;132.57;;;-2.40;99.90;;;;;;4992795;28;20042;-74
2023/12/07 06:49:00;;;;;;;172.80;162.57;;;-2.30;99.90;;;;;;4992405;28;20037;-74
2023/12/07 06:51:25;;;;;;;149.17;139.77;;;-2.20;99.90;;;;;;4993658;28;20406;-73
2023/12/07 06:53:52;;;;;;;167.80;157.63;;;-2.20;99.90;;;;;;5010334;28;20280;-74
2023/12/07 06:56:18;;;;;;;182.27;170.70;;;-2.20;99.90;;;;;;5009848;28;20046;-73
2023/12/07 06:58:43;;;;;;;147.27;137.03;;;-2.20;99.90;;;;;;5010162;28;20048;-73
2023/12/07 07:01:09;;;;;;;194.33;182.40;;;-2.10;99.90;;;;;;5008172;28;20065;-73
2023/12/07 07:03:35;;;;;;;169.47;158.33;;;-2.10;99.90;;;;;;5009689;28;20046;-74
2023/12/07 07:06:00;;;;;;;204.57;192.07;;;-2.10;99.90;;;;;;5009067;28;20050;-73
2023/12/07 07:08:26;;;;;;;189.70;178.57;;;-2.20;99.90;;;;;;5009613;28;20034;-74
2023/12/07 07:10:52;;;;;;;164.63;153.90;;;-2.20;99.90;;;;;;5009370;28;20482;-74
2023/12/07 07:13:20;;;;;;;188.43;177.70;;;-2.20;99.90;;;;;;5009940;28;20038;-73
2023/12/07 07:15:47;;;;;;;164.90;154.73;;;-2.30;99.90;;;;;;4992824;28;20042;-73
2023/12/07 07:18:13;;;;;;;183.60;172.43;;;-2.30;99.90;;;;;;5007924;28;20046;-73
2023/12/07 07:20:39;;;;;;;182.67;171.67;;;-2.30;99.90;;;;;;5009410;28;20435;-74
2023/12/07 07:23:07;;;;;;;171.38;161.32;;;-2.30;99.90;;;;;;4992465;28;20064;-73
2023/12/07 07:25:34;;;;;;;186.25;175.75;;;-2.40;99.90;;;;;;4991602;28;20051;-74
2023/12/07 07:28:00;;;;;;;169.68;159.27;;;-2.40;99.90;;;;;;5008415;28;20344;-73
2023/12/07 07:30:26;;;;;;;181.83;171.07;;;-2.40;99.90;;;;;;5004299;28;20390;-73
2023/12/07 07:32:52;;;;;;;157.30;147.70;;;-2.40;99.90;;;;;;5010713;28;20402;-73
2023/12/07 07:35:17;;;;;;;166.50;155.90;;;-2.50;99.90;;;;;;4993580;28;20038;-73
2023/12/07 07:37:43;;;;;;;140.83;131.27;;;-2.50;99.90;;;;;;5009420;28;20092;-73
2023/12/07 07:40:11;;;;;;;156.00;146.23;;;-2.50;99.90;;;;;;5009853;28;20038;-73
2023/12/07 07:42:40;;;;;;;211.80;198.80;;;-2.50;99.90;;;;;;5018355;28;20081;-73
2023/12/07 07:45:07;;;;;;;219.20;205.88;;;-2.60;99.90;;;;;;5015987;28;20042;-73
2023/12/07 07:47:33;;;;;;;187.85;176.02;;;-2.60;99.90;;;;;;5010443;28;20509;-73
2023/12/07 07:50:04;;;;;;;181.57;169.98;;;-2.60;99.90;;;;;;5013123;28;20379;-73
2023/12/07 07:52:33;;;;;;;190.68;179.02;;;-2.50;99.90;;;;;;5012740;28;20046;-73
2023/12/07 07:55:02;;;;;;;183.65;172.40;;;-2.50;99.90;;;;;;5013321;28;20068;-74
2023/12/07 07:57:28;;;;;;;190.05;177.95;;;-2.50;99.90;;;;;;4997523;28;20052;-73
2023/12/07 07:59:54;;;;;;;149.82;139.90;;;-2.50;99.90;;;;;;4990017;28;20038;-74
2023/12/07 08:02:21;;;;;;;183.27;172.53;;;-2.50;99.90;;;;;;4997065;28;20136;-73
2023/12/07 08:04:47;;;;;;;202.18;190.52;;;-2.60;99.90;;;;;;5009307;28;20304;-73
2023/12/07 08:07:13;;;;;;;176.43;165.60;;;-2.50;99.90;;;;;;5015304;28;20041;-73
2023/12/07 08:09:39;;;;;;;170.33;156.97;;;-2.50;99.90;;;;;;4997100;28;20281;-73
2023/12/07 08:12:06;;;;;;;182.25;166.00;;;-2.50;99.90;;;;;;5013126;28;20073;-73
2023/12/07 08:14:32;;;;;;;212.95;194.45;;;-2.50;99.90;;;;;;4995400;28;20121;-73
2023/12/07 08:16:58;;;;;;;201.77;159.90;;;-2.40;99.90;;;;;;4996961;28;20134;-73
2023/12/07 08:19:23;;;;;;;238.97;211.77;;;-2.40;99.90;;;;;;5013137;28;20042;-73
2023/12/07 08:21:50;;;;;;;255.07;203.73;;;-2.40;99.90;;;;;;5013141;28;20389;-73
2023/12/07 08:24:16;;;;;;;207.90;190.60;;;-2.40;99.90;;;;;;4992565;28;20030;-73
2023/12/07 08:26:42;;;;;;;158.53;146.70;;;-2.40;99.90;;;;;;4995358;28;20049;-74
2023/12/07 08:29:08;;;;;;;163.80;153.05;;;-2.40;99.90;;;;;;5007812;28;20081;-73
2023/12/07 08:31:34;;;;;;;206.33;193.83;;;-2.40;99.90;;;;;;5010479;28;20111;-73
2023/12/07 08:34:00;;;;;;;196.87;185.30;;;-2.40;99.90;;;;;;4994220;28;20046;-74
2023/12/07 08:36:26;;;;;;;231.95;218.77;;;-2.30;99.90;;;;;;5007816;28;20034;-73
2023/12/07 08:38:52;;;;;;;180.30;169.40;;;-2.20;99.90;;;;;;5012338;28;20096;-73
2023/12/07 08:41:18;;;;;;;181.40;170.93;;;-2.10;99.90;;;;;;4999781;28;20037;-73
2023/12/07 08:43:44;;;;;;;191.57;180.18;;;-2.10;99.90;;;;;;5012006;28;20280;-73
2023/12/07 08:46:13;;;;;;;215.73;203.82;;;-2.00;99.90;;;;;;5028225;28;20586;-73
2023/12/07 08:48:38;;;;;;;224.18;210.90;;;-2.00;99.90;;;;;;4991980;28;20504;-74
2023/12/07 08:51:04;;;;;;;216.00;203.67;;;-1.90;99.90;;;;;;5007387;28;20046;-73
2023/12/07 08:53:30;;;;;;;243.10;229.63;;;-1.80;99.90;;;;;;4989780;28;20042;-73
2023/12/07 08:55:56;;;;;;;253.03;238.80;;;-1.80;99.90;;;;;;4986114;28;20392;-74
2023/12/07 08:58:21;;;;;;;232.20;218.53;;;-1.70;99.90;;;;;;5010076;28;20136;-74
2023/12/07 09:00:47;;;;;;;240.37;226.87;;;-1.80;99.90;;;;;;5011276;28;20483;-74
2023/12/07 09:03:13;;;;;;;271.73;256.27;;;-1.80;99.90;;;;;;5013687;28;20087;-74
2023/12/07 09:05:39;;;;;;;233.03;219.00;;;-1.80;99.90;;;;;;4995247;28;20073;-73
2023/12/07 09:08:05;;;;;;;232.20;218.60;;;-1.80;99.90;;;;;;5008681;28;20042;-73
2023/12/07 09:10:31;;;;;;;232.32;218.35;;;-1.80;99.90;;;;;;4992530;28;20049;-74
2023/12/07 09:12:56;;;;;;;202.33;189.90;;;-1.70;99.90;;;;;;5008105;28;20092;-75
2023/12/07 09:15:22;;;;;;;251.27;236.93;;;-1.70;99.90;;;;;;5010489;28;20544;-74
2023/12/07 09:17:50;;;;;;;237.53;223.70;;;-1.60;99.90;;;;;;5008544;28;20042;-74
2023/12/07 09:20:16;;;;;;;246.50;232.13;;;-1.60;99.90;;;;;;5010937;28;20046;-74
2023/12/07 09:22:46;;;;;;;232.53;218.50;;;-1.60;99.90;;;;;;4990385;28;20096;-74
2023/12/07 09:25:13;;;;;;;270.85;255.05;;;-1.50;99.90;;;;;;4994604;28;20049;-74
2023/12/07 09:27:39;;;;;;;271.13;254.88;;;-1.50;99.90;;;;;;5012812;28;20469;-74
2023/12/07 09:30:13;;;;;;;261.17;245.52;;;-1.40;99.90;;;;;;5009122;28;20042;-74
2023/12/07 09:32:42;;;;;;;235.02;220.93;;;-1.30;99.90;;;;;;5009941;28;20091;-75
2023/12/07 09:35:18;;;;;;;241.30;226.63;;;-1.30;99.90;;;;;;5011524;28;20046;-74
2023/12/07 09:37:45;;;;;;;296.88;279.98;;;-1.20;99.90;;;;;;4994908;28;20121;-74
2023/12/07 09:40:25;;;;;;;318.65;300.30;;;-1.10;99.90;;;;;;4994157;28;20065;-75
2023/12/07 09:42:51;;;;;;;309.63;290.58;;;-1.10;99.90;;;;;;5011023;28;20046;-75
2023/12/07 09:45:19;;;;;;;300.30;282.55;;;-1.00;99.90;;;;;;4995294;28;20069;-75
2023/12/07 09:47:52;;;;;;;333.55;314.00;;;-1.00;99.90;;;;;;4995175;28;20034;-75
2023/12/07 09:50:22;;;;;;;327.63;308.73;;;-0.90;99.90;;;;;;4994444;28;20430;-75
2023/12/07 09:52:50;;;;;;;316.58;298.23;;;-0.90;99.90;;;;;;5007478;28;20049;-75
2023/12/07 09:55:17;;;;;;;350.08;329.35;;;-0.90;99.90;;;;;;5009558;28;20064;-75
2023/12/07 09:57:43;;;;;;;349.00;328.92;;;-0.80;99.90;;;;;;5010844;28;20486;-75
2023/12/07 10:00:14;;;;;;;362.98;342.17;;;-0.80;99.90;;;;;;4993059;28;20052;-75
2023/12/07 10:02:41;;;;;;;356.35;335.88;;;-0.80;99.90;;;;;;5010881;28;20046;-75
2023/12/07 10:05:13;;;;;;;321.90;304.27;;;-0.70;99.90;;;;;;4991797;28;20092;-75
2023/12/07 10:07:57;;;;;;;327.40;309.00;;;-0.70;99.90;;;;;;4994906;28;20049;-75
2023/12/07 10:10:23;;;;;;;300.50;283.52;;;-0.70;99.90;;;;;;5008893;28;20033;-75
2023/12/07 10:12:55;;;;;;;334.90;315.57;;;-0.70;99.90;;;;;;5009989;28;20045;-75
2023/12/07 10:15:23;;;;;;;307.23;289.58;;;-0.60;99.90;;;;;;5011455;28;20056;-75
2023/12/07 10:17:50;;;;;;;334.60;315.38;;;-0.60;99.90;;;;;;4994758;28;20498;-75
2023/12/07 10:20:17;;;;;;;380.42;358.13;;;-0.60;99.90;;;;;;5010815;28;20116;-75
2023/12/07 10:22:43;;;;;;;379.02;356.80;;;-0.50;99.90;;;;;;4993953;28;20045;-75
2023/12/07 10:25:11;;;;;;;381.88;359.88;;;-0.50;99.90;;;;;;5009899;28;20050;-75
2023/12/07 10:27:38;;;;;;;409.27;385.80;;;-0.50;99.90;;;;;;4990105;28;20124;-75
2023/12/07 10:30:06;;;;;;;431.02;405.30;;;-0.50;99.90;;;;;;4990077;28;20389;-75
2023/12/07 10:32:36;;;;;;;456.00;429.50;;;-0.40;99.90;;;;;;5007268;28;20109;-76
2023/12/07 10:35:01;;;;;;;429.50;405.33;;;-0.40;99.90;;;;;;5008409;28;20422;-76
2023/12/07 10:37:27;;;;;;;360.87;340.13;;;-0.30;99.90;;;;;;4989407;28;20099;-76
2023/12/07 10:39:53;;;;;;;393.23;370.57;;;-0.30;99.90;;;;;;5010143;28;20046;-75
2023/12/07 10:42:24;;;;;;;381.87;360.50;;;-0.20;99.90;;;;;;4997977;28;20406;-76
2023/12/07 10:44:53;;;;;;;411.30;388.33;;;-0.20;99.90;;;;;;4989039;28;20046;-76
2023/12/07 10:47:22;;;;;;;386.10;364.90;;;-0.10;99.90;;;;;;4992619;28;20076;-76
2023/12/07 10:49:54;;;;;;;439.20;413.98;;;-0.10;99.90;;;;;;5007981;28;20414;-76
2023/12/07 10:52:24;;;;;;;418.23;393.40;;;0.00;99.90;;;;;;5010726;28;20121;-75
2023/12/07 10:55:15;;;;;;;467.48;440.35;;;0.10;99.90;;;;;;4988657;28;20486;-76
2023/12/07 10:57:42;;;;;;;385.17;363.08;;;0.20;99.90;;;;;;5009284;28;20438;-75
2023/12/07 11:00:09;;;;;;;447.17;421.25;;;0.30;99.90;;;;;;4993920;28;20069;-75
2023/12/07 11:02:36;;;;;;;471.00;444.45;;;0.40;99.90;;;;;;4993786;28;20077;-76
2023/12/07 11:05:02;;;;;;;466.80;440.30;;;0.50;99.90;;;;;;4982363;28;20042;-75
2023/12/07 11:07:54;;;;;;;489.42;461.08;;;0.50;99.90;;;;;;5009409;28;20038;-75
2023/12/07 11:10:36;;;;;;;489.73;460.42;;;0.60;99.90;;;;;;5011746;28;20073;-75
2023/12/07 11:13:24;;;;;;;469.23;442.98;;;0.60;99.90;;;;;;5006738;28;20034;-74
2023/12/07 11:15:49;;;;;;;457.58;431.83;;;0.70;99.90;;;;;;5004636;28;20041;-75
2023/12/07 11:18:15;;;;;;;509.57;481.67;;;0.70;99.90;;;;;;5012633;28;20038;-75
2023/12/07 11:20:44;;;;;;;480.00;452.40;;;0.70;99.90;;;;;;5013038;28;20038;-75
2023/12/07 11:23:10;;;;;;;474.70;447.45;;;0.80;99.90;;;;;;5007863;28;20052;-75
2023/12/07 11:25:39;;;;;;;503.40;474.63;;;0.80;99.90;;;;;;5027552;28;21187;-75
2023/12/07 11:28:07;;;;;;;495.38;466.65;;;0.90;99.90;;;;;;5007700;28;20143;-75
2023/12/07 11:30:35;;;;;;;529.42;498.17;;;0.90;99.90;;;;;;5017655;28;20034;-75
2023/12/07 11:33:05;;;;;;;558.17;524.35;;;1.00;99.90;;;;;;5010504;28;20034;-75
2023/12/07 11:35:31;;;;;;;530.83;500.55;;;1.00;99.90;;;;;;4995944;28;20049;-75
2023/12/07 11:38:07;;;;;;;515.45;484.42;;;1.00;99.90;;;;;;5011796;28;20038;-75
2023/12/07 11:40:40;;;;;;;520.15;489.52;;;1.00;99.90;;;;;;4995068;28;20046;-75
2023/12/07 11:43:06;;;;;;;470.80;441.17;;;0.90;99.90;;;;;;4997523;28;20132;-75
2023/12/07 11:45:42;;;;;;;447.27;418.92;;;0.80;99.90;;;;;;5014483;28;20033;-74
2023/12/07 11:48:09;;;;;;;490.00;451.35;;;0.60;99.90;;;;;;5009039;28;20423;-74
2023/12/07 11:50:35;;;;;;;519.58;484.58;;;0.50;99.90;;;;;;5010930;28;20041;-74
2023/12/07 11:53:00;;;;;;;508.70;473.30;;;0.40;99.90;;;;;;5009658;28;20120;-74
2023/12/07 11:55:26;;;;;;;479.83;443.13;;;0.30;99.90;;;;;;5013318;28;20048;-74
2023/12/07 11:57:52;;;;;;;465.63;431.20;;;0.30;99.90;;;;;;5010466;28;20049;-75
2023/12/07 12:00:17;;;;;;;533.00;487.57;;;0.20;99.90;;;;;;5011374;28;20051;-74
2023/12/07 12:02:47;;;;;;;495.17;459.27;;;0.20;99.90;;;;;;5013206;28;20398;-74
2023/12/07 12:05:13;;;;;;;468.35;426.60;;;0.20;99.90;;;;;;4996516;28;20053;-74
2023/12/07 12:07:39;;;;;;;474.17;431.20;;;0.10;99.90;;;;;;5013473;28;20406;-74